Time;durP1;ratioP1;P1;durP2;ratioP2;P2;SDS_P1;SDS_P2;PMS_P1;PMS_P2;Temp;Humidity;BMP_temperature;BMP_pressure;BME280_temperature;BME280_humidity;BME280_pressure;Samples;Min_cycle;Max_cycle;Signal;HPM_P1;HPM_P2
2022/07/01 00:01:32;;;;;;;9.90;5.13;;;;;;;17.00;100.00;95367.66;5013305;28;20049;-83
2022/07/01 00:03:59;;;;;;;9.30;5.13;;;;;;;17.07;100.00;95362.66;5013531;28;20053;-82
2022/07/01 00:06:24;;;;;;;13.38;5.65;;;;;;;17.24;100.00;95361.03;5010706;28;20495;-83
2022/07/01 00:08:50;;;;;;;13.20;6.60;;;;;;;17.38;100.00;95361.66;5013182;28;20257;-83
2022/07/01 00:11:16;;;;;;;9.05;6.22;;;;;;;17.48;100.00;95361.34;5012365;28;20048;-83
2022/07/01 00:13:41;;;;;;;13.05;6.80;;;;;;;17.68;100.00;95361.72;5013895;28;20050;-84
2022/07/01 00:16:07;;;;;;;12.63;6.47;;;;;;;17.75;100.00;95364.69;5030651;28;20096;-83
2022/07/01 00:18:32;;;;;;;13.45;7.20;;;;;;;17.81;100.00;95363.44;5029493;28;20067;-84
2022/07/01 00:21:00;;;;;;;11.30;6.72;;;;;;;17.88;100.00;95386.09;5028009;28;20056;-84
2022/07/01 00:23:26;;;;;;;11.80;7.35;;;;;;;17.98;100.00;95396.44;5030812;28;20046;-83
2022/07/01 00:25:52;;;;;;;12.70;5.97;;;;;;;18.10;100.00;95385.88;5013103;28;20037;-82
2022/07/01 00:28:17;;;;;;;11.98;6.82;;;;;;;18.04;100.00;95389.03;5028880;28;20045;-83
2022/07/01 00:30:42;;;;;;;15.43;6.43;;;;;;;18.13;100.00;95390.56;5021633;28;20510;-82
2022/07/01 00:33:08;;;;;;;12.25;7.05;;;;;;;18.17;100.00;95396.81;5030778;28;20050;-81
2022/07/01 00:35:33;;;;;;;10.05;6.07;;;;;;;18.13;100.00;95401.22;5030021;28;20057;-81
2022/07/01 00:37:59;;;;;;;14.63;6.55;;;;;;;18.11;100.00;95414.06;5013143;28;20037;-82
2022/07/01 00:40:24;;;;;;;17.23;5.80;;;;;;;17.98;100.00;95409.75;5011311;28;20045;-83
2022/07/01 00:42:50;;;;;;;10.00;5.90;;;;;;;17.93;100.00;95404.56;5012263;28;20049;-82
2022/07/01 00:45:16;;;;;;;8.60;5.05;;;;;;;17.94;100.00;95408.81;5029564;28;20041;-81
2022/07/01 00:47:42;;;;;;;9.20;5.70;;;;;;;17.91;100.00;95404.13;5011471;28;20107;-82
2022/07/01 00:50:13;;;;;;;8.35;5.05;;;;;;;17.82;100.00;95407.56;5027078;28;20628;-83
2022/07/01 00:52:40;;;;;;;9.98;5.40;;;;;;;17.86;100.00;95417.56;5023700;28;20056;-82
2022/07/01 00:55:08;;;;;;;9.70;5.32;;;;;;;17.83;100.00;95411.78;5010807;28;20037;-82
2022/07/01 00:57:36;;;;;;;11.98;5.40;;;;;;;17.79;100.00;95424.16;5009042;28;20041;-83
2022/07/01 01:00:11;;;;;;;6.05;4.40;;;;;;;17.87;100.00;95435.09;5011948;28;20091;-83
2022/07/01 01:02:37;;;;;;;8.48;4.35;;;;;;;17.96;100.00;95438.56;5012096;28;20041;-82
2022/07/01 01:05:04;;;;;;;7.25;4.05;;;;;;;17.83;100.00;95430.44;5011991;28;20502;-82
2022/07/01 01:07:31;;;;;;;9.27;4.20;;;;;;;17.83;100.00;95446.41;5011164;28;20495;-82
2022/07/01 01:09:57;;;;;;;7.30;4.13;;;;;;;17.81;100.00;95453.13;5007764;28;20053;-83
2022/07/01 01:12:25;;;;;;;7.35;3.67;;;;;;;17.68;100.00;95438.91;5029088;28;20045;-82
2022/07/01 01:14:52;;;;;;;6.97;3.70;;;;;;;17.86;100.00;95444.19;5012585;28;20053;-83
2022/07/01 01:17:18;;;;;;;7.68;2.92;;;;;;;17.93;100.00;95450.63;5027998;28;20168;-82
2022/07/01 01:19:44;;;;;;;6.28;3.10;;;;;;;17.91;100.00;95446.72;5021312;28;20091;-82
2022/07/01 01:22:14;;;;;;;6.22;3.10;;;;;;;17.87;100.00;95446.56;5029843;28;20048;-82
2022/07/01 01:24:40;;;;;;;5.45;3.30;;;;;;;17.97;100.00;95434.78;5029653;28;20034;-82
2022/07/01 01:27:06;;;;;;;8.50;3.17;;;;;;;17.91;100.00;95430.75;5011125;28;20049;-81
2022/07/01 01:29:32;;;;;;;6.32;2.80;;;;;;;17.76;100.00;95451.41;5029175;28;20099;-82
2022/07/01 01:31:58;;;;;;;6.03;3.10;;;;;;;17.90;100.00;95453.09;5029153;28;20419;-82
2022/07/01 01:34:24;;;;;;;4.55;3.08;;;;;;;17.89;100.00;95443.56;5012223;28;20037;-81
2022/07/01 01:36:49;;;;;;;4.57;2.60;;;;;;;17.83;100.00;95441.06;5009167;28;20558;-82
2022/07/01 01:41:40;;;;;;;4.72;2.50;;;;;;;17.83;100.00;95433.09;5024752;28;20041;-82
2022/07/01 01:44:06;;;;;;;7.40;2.63;;;;;;;17.69;100.00;95419.19;5011585;28;20091;-82
2022/07/01 01:46:31;;;;;;;4.07;2.67;;;;;;;17.67;100.00;95418.75;5029072;28;20504;-82
2022/07/01 01:48:58;;;;;;;4.80;2.13;;;;;;;17.59;100.00;95422.19;5028472;28;20052;-82
2022/07/01 01:51:23;;;;;;;6.38;1.95;;;;;;;17.49;100.00;95407.34;5004751;28;20042;-82
2022/07/01 01:53:49;;;;;;;3.25;1.90;;;;;;;17.48;100.00;95419.06;5010786;28;20064;-82
2022/07/01 01:56:15;;;;;;;7.35;2.00;;;;;;;17.41;100.00;95398.28;5009699;28;20551;-82
2022/07/01 01:58:43;;;;;;;3.35;1.80;;;;;;;17.43;100.00;95396.06;5007759;28;20057;-83
2022/07/01 02:01:13;;;;;;;4.13;2.05;;;;;;;17.32;100.00;95389.50;5026539;28;20575;-81
2022/07/01 02:03:40;;;;;;;4.47;1.80;;;;;;;17.40;100.00;95396.72;5011354;28;20050;-82
2022/07/01 02:06:07;;;;;;;3.55;1.80;;;;;;;17.30;100.00;95413.00;5011825;28;20041;-81
2022/07/01 02:08:33;;;;;;;5.28;1.90;;;;;;;17.26;100.00;95417.38;5026305;28;20102;-81
2022/07/01 02:10:58;;;;;;;4.13;1.90;;;;;;;17.22;100.00;95421.75;5017432;28;20042;-81
2022/07/01 02:13:24;;;;;;;2.35;1.77;;;;;;;17.34;100.00;95424.56;5010975;28;20094;-80
2022/07/01 02:15:50;;;;;;;4.32;1.80;;;;;;;17.29;100.00;95428.16;5029840;28;20487;-81
2022/07/01 02:18:16;;;;;;;4.10;1.80;;;;;;;17.11;100.00;95432.72;5029491;28;20041;-80
2022/07/01 02:20:42;;;;;;;3.28;1.63;;;;;;;17.24;100.00;95435.50;5009247;28;20046;-80
2022/07/01 02:23:08;;;;;;;2.97;1.88;;;;;;;17.22;100.00;95438.47;5028911;28;20045;-81
2022/07/01 02:25:34;;;;;;;3.17;1.60;;;;;;;17.26;100.00;95454.59;5029884;28;20491;-81
2022/07/01 02:28:00;;;;;;;5.40;2.00;;;;;;;17.27;100.00;95456.19;5028821;28;20034;-81
2022/07/01 02:30:27;;;;;;;3.22;1.50;;;;;;;17.22;100.00;95453.66;5010302;28;20041;-81
2022/07/01 02:32:52;;;;;;;4.25;1.90;;;;;;;17.21;100.00;95457.41;5028122;28;20458;-80
2022/07/01 02:35:18;;;;;;;3.05;1.80;;;;;;;17.17;100.00;95467.09;5012085;28;20044;-81
2022/07/01 02:37:44;;;;;;;2.47;1.60;;;;;;;17.24;100.00;95462.91;5026435;28;20034;-80
2022/07/01 02:40:11;;;;;;;3.20;1.98;;;;;;;17.21;100.00;95468.06;5025357;28;20048;-80
2022/07/01 02:42:37;;;;;;;6.25;2.00;;;;;;;17.16;100.00;95468.22;5020937;28;20491;-81
2022/07/01 02:45:04;;;;;;;5.20;2.13;;;;;;;17.17;100.00;95475.09;5011848;28;20052;-81
2022/07/01 02:47:34;;;;;;;3.70;2.25;;;;;;;17.14;100.00;95484.50;5028955;28;20458;-80
2022/07/01 02:50:00;;;;;;;3.90;2.10;;;;;;;17.08;100.00;95480.41;5010961;28;20065;-82
2022/07/01 02:52:26;;;;;;;8.55;2.38;;;;;;;17.09;100.00;95492.59;5023665;28;20112;-81
2022/07/01 02:54:52;;;;;;;3.28;1.80;;;;;;;17.07;100.00;95484.94;5009953;28;20043;-81
2022/07/01 02:57:18;;;;;;;2.83;1.83;;;;;;;17.02;100.00;95482.41;5029139;28;20045;-82
2022/07/01 02:59:43;;;;;;;3.20;2.10;;;;;;;17.05;100.00;95468.53;5027510;28;20053;-82
2022/07/01 03:02:09;;;;;;;3.90;2.38;;;;;;;17.12;100.00;95476.03;5051540;28;20037;-82
2022/07/01 03:04:34;;;;;;;4.03;1.90;;;;;;;17.09;100.00;95477.41;5055213;28;20049;-81
2022/07/01 03:06:59;;;;;;;3.95;2.10;;;;;;;17.08;100.00;95469.75;5053494;28;20040;-82
2022/07/01 03:09:26;;;;;;;2.72;1.80;;;;;;;17.18;100.00;95476.66;5047987;28;20040;-81
2022/07/01 03:11:51;;;;;;;3.60;2.13;;;;;;;17.17;100.00;95477.75;5045136;28;20105;-82
2022/07/01 03:14:17;;;;;;;4.80;2.05;;;;;;;17.16;100.00;95482.28;5016417;28;20076;-82
2022/07/01 03:16:42;;;;;;;4.18;2.20;;;;;;;17.08;100.00;95486.50;5010641;28;20585;-82
2022/07/01 03:19:09;;;;;;;3.20;1.90;;;;;;;17.18;100.00;95500.59;5004081;28;20049;-82
2022/07/01 03:21:35;;;;;;;4.07;2.10;;;;;;;17.07;100.00;95495.56;5030414;28;20129;-83
2022/07/01 03:24:00;;;;;;;3.97;2.03;;;;;;;17.08;100.00;95491.84;5032426;28;20042;-82
2022/07/01 03:26:26;;;;;;;4.10;2.10;;;;;;;17.13;100.00;95504.97;5014484;28;20049;-82
2022/07/01 03:28:51;;;;;;;3.97;2.20;;;;;;;17.16;100.00;95508.88;5010716;28;20045;-83
2022/07/01 03:31:17;;;;;;;4.32;2.08;;;;;;;17.07;100.00;95506.22;5014325;28;20041;-82
2022/07/01 03:33:42;;;;;;;2.88;2.00;;;;;;;17.08;100.00;95502.47;5014460;28;20049;-82
2022/07/01 03:36:08;;;;;;;3.90;1.90;;;;;;;17.11;100.00;95495.72;5014309;28;20045;-82
2022/07/01 03:38:34;;;;;;;3.67;2.00;;;;;;;17.09;100.00;95504.00;5013859;28;20042;-82
2022/07/01 03:40:59;;;;;;;3.10;2.00;;;;;;;17.04;100.00;95506.84;5011239;28;20060;-82
2022/07/01 03:43:25;;;;;;;4.63;2.10;;;;;;;17.12;100.00;95503.41;5013384;28;20071;-83
2022/07/01 03:45:50;;;;;;;2.88;1.98;;;;;;;17.13;100.00;95499.63;5031466;28;20069;-82
2022/07/01 03:48:16;;;;;;;5.57;2.08;;;;;;;17.17;100.00;95509.66;5013088;28;20099;-83
2022/07/01 03:50:41;;;;;;;3.80;2.08;;;;;;;17.14;100.00;95509.19;5013414;28;20065;-82
2022/07/01 03:55:51;;;;;;;4.40;2.23;;;;;;;17.10;100.00;95521.53;5031308;28;20087;-82
2022/07/01 03:58:16;;;;;;;4.20;2.10;;;;;;;17.09;100.00;95514.66;5012442;28;20041;-81
2022/07/01 04:00:42;;;;;;;3.30;2.10;;;;;;;17.03;100.00;95526.53;5031335;28;20045;-81
2022/07/01 04:03:07;;;;;;;3.90;2.00;;;;;;;17.01;100.00;95520.75;5030688;28;20077;-82
2022/07/01 04:05:35;;;;;;;4.22;2.30;;;;;;;16.99;100.00;95514.94;5031374;28;20123;-82
2022/07/01 04:08:02;;;;;;;3.20;2.00;;;;;;;17.05;100.00;95519.03;5028426;28;20053;-82
2022/07/01 04:10:33;;;;;;;3.00;2.20;;;;;;;17.06;100.00;95520.59;5012368;28;20116;-82
2022/07/01 04:13:00;;;;;;;6.05;2.30;;;;;;;17.00;100.00;95521.84;5031025;28;20046;-82
2022/07/01 04:15:25;;;;;;;4.63;2.47;;;;;;;16.99;100.00;95517.59;5013224;28;20096;-83
2022/07/01 04:17:51;;;;;;;3.08;2.10;;;;;;;16.99;100.00;95501.66;5027291;28;20687;-83
2022/07/01 04:20:17;;;;;;;5.28;2.10;;;;;;;16.99;100.00;95504.31;5030340;28;20066;-83
2022/07/01 04:22:42;;;;;;;4.97;2.00;;;;;;;17.08;100.00;95497.16;5031098;28;20049;-83
2022/07/01 04:25:08;;;;;;;2.90;2.00;;;;;;;17.00;100.00;95495.25;5030908;28;20486;-83
2022/07/01 04:27:34;;;;;;;4.50;2.05;;;;;;;16.99;100.00;95479.63;5002655;28;20056;-83
2022/07/01 04:30:01;;;;;;;2.40;1.90;;;;;;;16.90;100.00;95474.28;5030101;28;20037;-83
2022/07/01 04:32:27;;;;;;;5.20;2.35;;;;;;;17.00;100.00;95473.97;5030166;28;20045;-83
2022/07/01 04:34:53;;;;;;;3.35;2.13;;;;;;;17.17;100.00;95472.41;5010480;28;20048;-83
2022/07/01 04:37:19;;;;;;;3.33;2.22;;;;;;;17.18;100.00;95484.63;5009553;28;20045;-82
2022/07/01 04:39:45;;;;;;;2.50;1.80;;;;;;;17.22;100.00;95485.56;5008625;28;20500;-84
2022/07/01 04:42:10;;;;;;;5.00;2.20;;;;;;;17.24;100.00;95494.81;5030010;28;20087;-84
2022/07/01 04:44:37;;;;;;;5.50;2.35;;;;;;;17.18;100.00;95485.41;5012376;28;20423;-84
2022/07/01 04:47:04;;;;;;;3.10;2.20;;;;;;;17.23;100.00;95487.16;5013033;28;20099;-84
2022/07/01 04:49:30;;;;;;;5.22;2.20;;;;;;;17.22;100.00;95474.94;5011660;28;20052;-84
2022/07/01 04:51:57;;;;;;;4.20;2.35;;;;;;;17.34;100.00;95472.44;5030106;28;20045;-83
2022/07/01 04:54:23;;;;;;;4.32;2.05;;;;;;;17.44;100.00;95466.81;5029314;28;20038;-83
2022/07/01 04:56:50;;;;;;;5.32;2.13;;;;;;;17.40;100.00;95459.78;5030272;28;20560;-82
2022/07/01 04:59:16;;;;;;;4.70;2.30;;;;;;;17.37;100.00;95450.53;5027447;28;20038;-84
2022/07/01 05:01:42;;;;;;;3.78;2.08;;;;;;;17.41;100.00;95440.84;5030277;28;20044;-83
2022/07/01 05:04:08;;;;;;;3.47;2.20;;;;;;;17.53;100.00;95447.38;5012727;28;20049;-83
2022/07/01 05:06:34;;;;;;;7.95;2.50;;;;;;;17.33;100.00;95444.28;5020225;28;20561;-83
2022/07/01 05:09:00;;;;;;;4.70;2.55;;;;;;;17.42;100.00;95445.03;5029974;28;20415;-83
2022/07/01 05:11:26;;;;;;;2.85;2.00;;;;;;;17.59;100.00;95451.47;5009557;28;20452;-83
2022/07/01 05:13:51;;;;;;;4.68;2.45;;;;;;;17.63;100.00;95463.03;5031096;28;20041;-83
2022/07/01 05:16:18;;;;;;;4.53;2.17;;;;;;;17.55;100.00;95471.81;5029915;28;20848;-80
2022/07/01 05:24:11;;;;;;;7.95;2.28;;;;;;;17.75;100.00;95486.34;5028220;28;20460;-82
2022/07/01 05:26:37;;;;;;;3.85;2.60;;;;;;;17.81;100.00;95472.56;5030524;28;20037;-82
2022/07/01 05:29:02;;;;;;;3.88;2.33;;;;;;;17.79;100.00;95480.06;5011340;28;20124;-81
2022/07/01 05:31:28;;;;;;;5.55;2.55;;;;;;;17.67;100.00;95464.75;5030019;28;20045;-82
2022/07/01 05:33:54;;;;;;;5.28;2.40;;;;;;;17.67;100.00;95442.69;5029811;28;20037;-82
2022/07/01 05:36:20;;;;;;;5.00;2.53;;;;;;;17.62;100.00;95432.19;5029233;28;20053;-81
2022/07/01 05:38:46;;;;;;;4.75;2.83;;;;;;;17.42;100.00;95437.06;5019712;28;20039;-82
2022/07/01 05:41:12;;;;;;;4.55;2.40;;;;;;;17.56;100.00;95468.06;5010603;28;20408;-82
2022/07/01 05:43:38;;;;;;;5.03;2.47;;;;;;;17.61;100.00;95486.50;5028906;28;20041;-82
2022/07/01 05:46:04;;;;;;;3.80;2.40;;;;;;;17.69;100.00;95514.22;5028937;28;20045;-83
2022/07/01 05:48:29;;;;;;;3.95;2.38;;;;;;;17.75;100.00;95513.72;5028660;28;20045;-83
2022/07/01 05:50:55;;;;;;;3.92;2.42;;;;;;;17.86;100.00;95514.19;5027248;28;20037;-86
2022/07/01 05:53:20;;;;;;;3.80;2.50;;;;;;;17.89;100.00;95523.44;5029326;28;20064;-86
2022/07/01 05:55:46;;;;;;;6.80;2.55;;;;;;;18.02;100.00;95530.47;5011557;28;20045;-85
2022/07/01 05:58:12;;;;;;;4.47;2.58;;;;;;;17.95;100.00;95538.16;5011893;28;20068;-81
2022/07/01 06:00:41;;;;;;;3.92;2.40;;;;;;;18.03;100.00;95534.72;5028967;28;20048;-81
2022/07/01 06:03:07;;;;;;;4.35;2.35;;;;;;;18.00;100.00;95535.31;5029877;28;20407;-81
2022/07/01 06:05:33;;;;;;;3.78;2.35;;;;;;;17.88;100.00;95527.19;5028115;28;20045;-81
2022/07/01 06:07:58;;;;;;;3.90;2.53;;;;;;;17.98;100.00;95524.22;5021487;28;20069;-81
2022/07/01 06:10:24;;;;;;;5.40;2.35;;;;;;;18.31;100.00;95534.34;5023652;28;20037;-82
2022/07/01 06:12:49;;;;;;;8.85;2.55;;;;;;;18.34;100.00;95544.34;5022378;28;20072;-82
2022/07/01 06:15:15;;;;;;;9.57;2.75;;;;;;;18.36;100.00;95547.50;5011156;28;20463;-83
2022/07/01 06:17:41;;;;;;;4.63;2.60;;;;;;;18.57;100.00;95554.78;5012732;28;20191;-82
2022/07/01 06:20:08;;;;;;;4.68;2.70;;;;;;;18.58;100.00;95556.34;5010867;28;20063;-80
2022/07/01 06:22:34;;;;;;;5.47;2.50;;;;;;;18.66;100.00;95560.84;5029105;28;20553;-85
2022/07/01 06:25:00;;;;;;;4.55;2.10;;;;;;;18.56;100.00;95566.53;5029720;28;20049;-83
2022/07/01 06:27:26;;;;;;;5.10;2.20;;;;;;;18.44;100.00;95570.63;5028360;28;20053;-83
2022/07/01 06:29:51;;;;;;;3.67;2.13;;;;;;;18.42;100.00;95578.19;5011417;28;20075;-85
2022/07/01 06:32:17;;;;;;;3.67;2.67;;;;;;;18.48;100.00;95576.91;5011134;28;20037;-86
2022/07/01 06:34:43;;;;;;;3.95;2.53;;;;;;;18.44;100.00;95581.28;5011212;28;20037;-84
2022/07/01 06:37:09;;;;;;;5.28;2.70;;;;;;;18.36;100.00;95584.78;5028358;28;20041;-80
2022/07/01 06:39:34;;;;;;;3.83;2.50;;;;;;;18.34;100.00;95576.31;5027793;28;20042;-81
2022/07/01 06:42:02;;;;;;;7.82;2.60;;;;;;;18.29;100.00;95584.50;5027737;28;20524;-80
2022/07/01 06:44:28;;;;;;;4.43;2.47;;;;;;;18.13;100.00;95577.00;5028911;28;20042;-83
2022/07/01 06:46:53;;;;;;;3.35;2.50;;;;;;;18.02;100.00;95578.41;5010868;28;20064;-84
2022/07/01 06:49:18;;;;;;;3.63;2.35;;;;;;;18.10;100.00;95577.63;5027185;28;20038;-82
2022/07/01 06:51:44;;;;;;;4.85;2.40;;;;;;;17.99;100.00;95571.81;5028520;28;20112;-84
2022/07/01 06:54:09;;;;;;;4.25;2.60;;;;;;;18.11;100.00;95573.06;5011197;28;20455;-86
2022/07/01 06:56:35;;;;;;;4.43;2.50;;;;;;;18.00;100.00;95569.94;5013145;28;20583;-85
2022/07/01 06:59:01;;;;;;;3.83;2.40;;;;;;;18.03;100.00;95577.31;5014014;28;20470;-84
2022/07/01 07:01:27;;;;;;;4.43;2.50;;;;;;;17.99;100.00;95576.38;5015139;28;20038;-82
2022/07/01 07:03:52;;;;;;;3.55;2.40;;;;;;;18.02;100.00;95581.06;5032215;28;20680;-82
2022/07/01 07:06:18;;;;;;;3.95;2.60;;;;;;;17.82;100.00;95571.81;5009343;28;20065;-80
2022/07/01 07:08:44;;;;;;;3.45;2.47;;;;;;;17.94;100.00;95579.19;5032065;28;20137;-79
2022/07/01 07:11:09;;;;;;;3.70;2.60;;;;;;;17.81;100.00;95579.03;5011990;28;20061;-81
2022/07/01 07:13:36;;;;;;;5.35;2.83;;;;;;;18.02;100.00;95581.06;5031050;28;20053;-82
2022/07/01 07:16:02;;;;;;;4.35;2.65;;;;;;;18.22;100.00;95584.19;5013561;28;20041;-82
2022/07/01 07:18:28;;;;;;;4.65;2.75;;;;;;;18.18;100.00;95590.13;5013783;28;20102;-84
2022/07/01 07:20:54;;;;;;;4.97;2.78;;;;;;;18.11;100.00;95589.81;5031680;28;20116;-81
2022/07/01 07:23:19;;;;;;;5.15;2.50;;;;;;;18.17;100.00;95585.91;5031918;28;20075;-83
2022/07/01 07:25:45;;;;;;;4.68;2.58;;;;;;;18.28;100.00;95578.34;5031832;28;20044;-85
2022/07/01 07:28:11;;;;;;;4.45;2.47;;;;;;;18.36;100.00;95574.13;5012766;28;20099;-82
2022/07/01 07:30:37;;;;;;;3.85;2.63;;;;;;;18.41;100.00;95581.94;5031140;28;20037;-82
2022/07/01 07:33:02;;;;;;;6.93;2.30;;;;;;;18.33;100.00;95580.06;5031695;28;20045;-85
2022/07/01 07:35:28;;;;;;;6.30;2.58;;;;;;;18.38;100.00;95574.59;5031912;28;20045;-83
2022/07/01 07:37:53;;;;;;;6.00;2.55;;;;;;;18.41;100.00;95576.59;5012128;28;20044;-82
2022/07/01 07:40:19;;;;;;;4.68;2.90;;;;;;;18.42;100.00;95567.53;5013333;28;20435;-86
2022/07/01 07:42:46;;;;;;;7.28;2.63;;;;;;;18.50;100.00;95569.38;5014024;28;20095;-86
2022/07/01 07:45:13;;;;;;;5.05;3.10;;;;;;;18.46;100.00;95578.31;5013360;28;20196;-85
2022/07/01 07:47:43;;;;;;;4.75;2.90;;;;;;;18.36;100.00;95595.44;5028142;28;20041;-84
2022/07/01 07:50:08;;;;;;;8.48;2.63;;;;;;;18.47;100.00;95591.31;5014869;28;20604;-83
2022/07/01 07:52:34;;;;;;;6.63;3.03;;;;;;;18.40;100.00;95591.03;5031416;28;20049;-83
2022/07/01 07:55:00;;;;;;;4.88;3.30;;;;;;;18.16;100.00;95597.66;5014060;28;20060;-83
2022/07/01 07:57:25;;;;;;;6.38;3.42;;;;;;;18.18;100.00;95600.00;5010648;28;20049;-84
2022/07/01 07:59:51;;;;;;;6.13;3.25;;;;;;;17.93;100.00;95601.56;5031184;28;20427;-84
2022/07/01 08:02:17;;;;;;;6.63;3.83;;;;;;;18.03;100.00;95603.94;5014728;28;20500;-84
2022/07/01 08:04:42;;;;;;;6.68;3.92;;;;;;;17.79;100.00;95615.03;5013268;28;20270;-84
2022/07/01 08:07:08;;;;;;;8.05;4.90;;;;;;;17.74;100.00;95618.63;5013500;28;20080;-84
2022/07/01 08:09:34;;;;;;;7.43;4.97;;;;;;;17.47;100.00;95631.13;5012376;28;20045;-83
2022/07/01 08:12:04;;;;;;;8.27;5.32;;;;;;;17.54;100.00;95645.84;5030456;28;20042;-83
2022/07/01 08:14:30;;;;;;;7.43;5.03;;;;;;;17.63;100.00;95657.28;5031935;28;20104;-83
2022/07/01 08:16:55;;;;;;;10.98;5.18;;;;;;;17.55;100.00;95658.06;5031571;28;20042;-83
2022/07/01 08:19:21;;;;;;;7.88;5.28;;;;;;;17.25;100.00;95655.16;5011302;28;20076;-83
2022/07/01 08:21:46;;;;;;;6.63;4.80;;;;;;;16.68;100.00;95677.88;5011574;28;20042;-84
2022/07/01 08:24:12;;;;;;;6.63;3.25;;;;;;;16.38;100.00;95693.47;5012182;28;20041;-83
2022/07/01 08:26:38;;;;;;;3.35;2.13;;;;;;;15.74;100.00;95717.38;5014590;28;20037;-86
2022/07/01 08:29:04;;;;;;;6.03;1.95;;;;;;;15.33;100.00;95734.88;5026087;28;20088;-84
2022/07/01 08:31:31;;;;;;;6.53;1.90;;;;;;;14.98;100.00;95739.75;5012136;28;20044;-83
2022/07/01 08:33:57;;;;;;;3.50;1.65;;;;;;;15.02;100.00;95746.03;5029702;28;20096;-82
2022/07/01 08:36:23;;;;;;;2.45;1.70;;;;;;;14.52;100.00;95753.69;5013207;28;20503;-83
2022/07/01 08:38:49;;;;;;;4.60;1.92;;;;;;;14.27;100.00;95758.31;5029096;28;20045;-83
2022/07/01 08:41:15;;;;;;;2.45;1.63;;;;;;;14.03;100.00;95753.84;5013846;28;20041;-83
2022/07/01 08:43:41;;;;;;;3.55;2.05;;;;;;;13.79;100.00;95779.56;5029213;28;20041;-82
2022/07/01 08:46:07;;;;;;;5.25;2.30;;;;;;;13.72;100.00;95768.53;5031261;28;20427;-83
2022/07/01 08:48:34;;;;;;;3.90;2.35;;;;;;;13.86;100.00;95769.41;5011344;28;20041;-82
2022/07/01 08:51:03;;;;;;;4.72;2.30;;;;;;;13.80;100.00;95760.75;5029015;28;20492;-83
2022/07/01 08:53:30;;;;;;;3.53;2.33;;;;;;;13.88;100.00;95777.06;5029659;28;20060;-84
2022/07/01 08:58:41;;;;;;;;;;;;;;;13.50;100.00;95772.47;5011249;28;20494;-83
2022/07/01 09:01:24;;;;;;;6.30;2.65;;;;;;;13.37;100.00;95783.72;5013757;28;19921;-83
2022/07/01 09:04:11;;;;;;;16.30;4.10;;;;;;;13.48;100.00;95758.75;5011959;28;20080;-85
2022/07/01 09:06:36;;;;;;;6.47;2.75;;;;;;;13.57;100.00;95767.63;5000424;28;20053;-84
2022/07/01 09:09:13;;;;;;;6.25;2.70;;;;;;;13.69;100.00;95768.03;5010845;28;20482;-84
2022/07/01 09:11:53;;;;;;;4.53;2.78;;;;;;;13.76;100.00;95769.53;5010083;28;20495;-80
2022/07/01 09:14:29;;;;;;;8.00;2.67;;;;;;;13.80;100.00;95765.25;5029950;28;20048;-81
2022/07/01 09:17:00;;;;;;;5.55;2.67;;;;;;;13.84;100.00;95760.97;5029060;28;20038;-80
2022/07/01 09:19:27;;;;;;;5.40;2.38;;;;;;;13.72;100.00;95768.53;5005960;28;20048;-80
2022/07/01 09:22:00;;;;;;;3.80;2.40;;;;;;;13.57;100.00;95794.06;5009773;28;20053;-80
2022/07/01 09:24:34;;;;;;;12.82;2.78;;;;;;;13.61;100.00;95776.59;5021548;28;20107;-80
2022/07/01 09:27:08;;;;;;;2.95;2.00;;;;;;;13.53;100.00;95777.19;5025520;28;20080;-80
2022/07/01 09:29:38;;;;;;;9.45;2.70;;;;;;;13.60;100.00;95772.34;5020821;28;20042;-79
2022/07/01 09:32:05;;;;;;;3.30;2.00;;;;;;;13.62;100.00;95780.00;5030672;28;20037;-79
2022/07/01 09:34:39;;;;;;;4.82;2.50;;;;;;;13.62;100.00;95775.53;5011737;28;20048;-82
2022/07/01 09:37:05;;;;;;;4.90;2.28;;;;;;;13.33;100.00;95784.25;5030477;28;20044;-81
2022/07/01 09:39:44;;;;;;;3.75;2.40;;;;;;;13.61;100.00;95799.59;5026843;28;20050;-81
2022/07/01 09:42:11;;;;;;;3.50;2.10;;;;;;;13.48;100.00;95795.78;5023495;28;20041;-82
2022/07/01 09:44:54;;;;;;;3.10;1.98;;;;;;;13.42;100.00;95802.16;5029091;28;20108;-81
2022/07/01 09:47:23;;;;;;;2.50;1.90;;;;;;;13.50;100.00;95796.25;5025847;28;20048;-82
2022/07/01 09:49:49;;;;;;;3.25;2.17;;;;;;;13.48;100.00;95798.41;5028800;28;20080;-81
2022/07/01 09:52:15;;;;;;;4.57;2.80;;;;;;;13.78;100.00;95793.88;5029542;28;20041;-82
2022/07/01 09:54:41;;;;;;;3.53;2.30;;;;;;;13.61;100.00;95795.09;5012242;28;20507;-82
2022/07/01 09:57:07;;;;;;;4.00;2.25;;;;;;;13.51;100.00;95797.84;5017262;28;20033;-81
2022/07/01 09:59:32;;;;;;;4.75;2.20;;;;;;;13.62;100.00;95804.59;5005728;28;20048;-81
2022/07/01 10:02:00;;;;;;;4.68;2.30;;;;;;;13.56;100.00;95813.69;5012076;28;20570;-82
2022/07/01 10:04:27;;;;;;;3.67;2.53;;;;;;;13.41;100.00;95821.75;5027281;28;20046;-84
2022/07/01 10:07:06;;;;;;;4.50;2.50;;;;;;;13.39;100.00;95823.88;5012401;28;20097;-77
2022/07/01 10:09:55;;;;;;;6.68;3.03;;;;;;;13.46;100.00;95819.03;5020210;28;20061;-77
2022/07/01 10:12:37;;;;;;;4.70;2.45;;;;;;;13.52;100.00;95824.00;5023044;28;20038;-77
2022/07/01 10:15:06;;;;;;;6.35;2.13;;;;;;;13.48;100.00;95827.50;5011954;28;20128;-77
2022/07/01 10:17:40;;;;;;;5.68;2.65;;;;;;;13.31;100.00;95833.16;5030715;28;20042;-79
2022/07/01 10:20:15;;;;;;;5.47;2.70;;;;;;;13.40;100.00;95836.03;5028538;28;20042;-78
2022/07/01 10:22:43;;;;;;;5.00;2.47;;;;;;;13.57;100.00;95841.66;5030166;28;20052;-79
2022/07/01 10:25:47;;;;;;;6.00;2.58;;;;;;;13.46;100.00;95845.47;5011777;28;20053;-80
2022/07/01 10:28:19;;;;;;;3.53;2.47;;;;;;;13.42;100.00;95855.03;5023297;28;20061;-79
2022/07/01 10:30:53;;;;;;;3.78;2.47;;;;;;;13.72;100.00;95853.16;5014490;28;20153;-80
2022/07/01 10:33:39;;;;;;;5.68;2.72;;;;;;;13.85;100.00;95868.38;5016227;28;20069;-81
2022/07/01 10:36:06;;;;;;;4.20;2.58;;;;;;;13.83;100.00;95859.91;5031687;28;20120;-81
2022/07/01 10:38:32;;;;;;;4.45;2.67;;;;;;;13.68;100.00;95864.31;5015591;28;20592;-81
2022/07/01 10:41:09;;;;;;;6.10;2.80;;;;;;;13.65;100.00;95864.88;5020974;28;20041;-78
2022/07/01 10:43:37;;;;;;;5.80;2.80;;;;;;;13.68;100.00;95859.00;5014877;28;20045;-80
2022/07/01 10:46:04;;;;;;;5.50;2.20;;;;;;;13.72;100.00;95858.44;5033121;28;20069;-84
2022/07/01 10:48:33;;;;;;;5.05;2.58;;;;;;;13.73;100.00;95846.81;5016512;28;20117;-80
2022/07/01 10:51:00;;;;;;;4.30;2.70;;;;;;;13.61;100.00;95847.97;5015368;28;20064;-78
2022/07/01 10:53:45;;;;;;;4.68;2.72;;;;;;;13.75;100.00;95853.41;5032986;28;20492;-78
2022/07/01 10:56:16;;;;;;;3.70;2.50;;;;;;;13.78;100.00;95846.75;5028004;28;20231;-78
2022/07/01 10:58:42;;;;;;;5.03;2.63;;;;;;;13.80;100.00;95853.31;5030621;28;20045;-77
2022/07/01 11:01:08;;;;;;;4.53;2.60;;;;;;;13.65;100.00;95849.00;5013372;28;20518;-78
2022/07/01 11:03:36;;;;;;;3.72;2.40;;;;;;;13.89;100.00;95858.00;5035906;28;20045;-77
2022/07/01 11:06:02;;;;;;;4.07;2.60;;;;;;;14.01;100.00;95856.53;5010840;28;20046;-77
2022/07/01 11:08:28;;;;;;;3.92;2.50;;;;;;;13.93;100.00;95859.03;5013956;28;20048;-78
2022/07/01 11:10:58;;;;;;;4.35;2.80;;;;;;;14.03;100.00;95864.97;5014844;28;20045;-83
2022/07/01 11:13:25;;;;;;;4.00;2.70;;;;;;;13.91;100.00;95867.25;5032592;28;20037;-80
2022/07/01 11:15:56;;;;;;;3.97;2.60;;;;;;;13.89;100.00;95877.31;5030902;28;20496;-79
2022/07/01 11:18:22;;;;;;;4.43;2.60;;;;;;;13.78;100.00;95867.94;5025817;28;20558;-79
2022/07/01 11:20:48;;;;;;;4.10;2.30;;;;;;;13.97;100.00;95863.47;5015237;28;20053;-80
2022/07/01 11:23:14;;;;;;;5.57;3.67;;;;;;;13.93;100.00;95859.81;5044535;28;20438;-80
2022/07/01 11:25:39;;;;;;;4.68;2.97;;;;;;;13.93;100.00;95865.09;5014954;28;20420;-79
2022/07/01 11:28:05;;;;;;;4.57;2.60;;;;;;;13.96;100.00;95875.13;5008233;28;20037;-80
2022/07/01 11:30:30;;;;;;;7.07;2.88;;;;;;;13.79;100.00;95874.78;5032410;28;20041;-79
2022/07/01 11:32:58;;;;;;;5.22;3.00;;;;;;;13.75;100.00;95876.41;5014623;28;20045;-81
2022/07/01 11:41:08;;;;;;;5.55;2.90;;;;;;;13.85;100.00;95884.25;5028001;28;20045;-81
2022/07/01 11:43:37;;;;;;;5.90;3.15;;;;;;;13.92;100.00;95884.72;5033028;28;20048;-81